Time;durP1;ratioP1;P1;durP2;ratioP2;P2;SDS_P1;SDS_P2;PMS_P1;PMS_P2;Temp;Humidity;BMP_temperature;BMP_pressure;BME280_temperature;BME280_humidity;BME280_pressure;Samples;Min_cycle;Max_cycle;Signal;HPM_P1;HPM_P2
2023/06/04 00:00:47;;;;;;;;;;;;;;;13.46;55.34;102166.13;5015908;28;19917;-55
2023/06/04 00:03:13;;;;;;;;;;;;;;;13.44;56.17;102166.06;5015081;28;19917;-56
2023/06/04 00:05:38;;;;;;;;;;;;;;;13.45;54.35;102165.25;5024124;28;20042;-55
2023/06/04 00:08:03;;;;;;;;;;;;;;;13.44;53.16;102165.19;5019498;28;19929;-57
2023/06/04 00:10:28;;;;;;;;;;;;;;;13.45;54.70;102154.91;5019240;28;19921;-56
2023/06/04 00:12:54;;;;;;;;;;;;;;;13.44;54.93;102147.97;5014972;28;19917;-55
2023/06/04 00:15:19;;;;;;;;;;;;;;;13.39;55.53;102152.97;5019211;28;19921;-56
2023/06/04 00:17:44;;;;;;;;;;;;;;;13.37;56.15;102148.59;5022368;28;20419;-56
2023/06/04 00:20:10;;;;;;;;;;;;;;;13.33;56.12;102150.16;5020356;28;19979;-56
2023/06/04 00:22:35;;;;;;;;;;;;;;;13.35;55.28;102155.41;5018658;28;19917;-56
2023/06/04 00:25:01;;;;;;;;;;;;;;;13.32;56.35;102144.94;5022849;28;19925;-56
2023/06/04 00:27:26;;;;;;;;;;;;;;;13.28;55.15;102146.53;5018091;28;19925;-56
2023/06/04 00:29:51;;;;;;;;;;;;;;;13.27;56.72;102149.06;5019950;28;20024;-55
2023/06/04 00:32:16;;;;;;;;;;;;;;;13.23;54.41;102139.44;5019937;28;20349;-56
2023/06/04 00:34:42;;;;;;;;;;;;;;;13.21;56.71;102147.13;5017341;28;19979;-57
2023/06/04 00:37:07;;;;;;;;;;;;;;;13.14;57.83;102143.41;5017664;28;19956;-55
2023/06/04 00:39:34;;;;;;;;;;;;;;;13.11;56.67;102148.47;5015362;28;19941;-56
2023/06/04 00:41:59;;;;;;;;;;;;;;;13.11;55.16;102145.00;5025231;28;20332;-56
2023/06/04 00:44:25;;;;;;;;;;;;;;;13.08;56.65;102142.28;5018448;28;20011;-58
2023/06/04 00:46:53;;;;;;;;;;;;;;;13.07;58.30;102143.13;5023204;28;20295;-57
2023/06/04 00:49:18;;;;;;;;;;;;;;;13.07;56.39;102146.56;5014661;28;19960;-58
2023/06/04 00:51:44;;;;;;;;;;;;;;;13.03;58.97;102143.81;5019446;28;19957;-56
2023/06/04 00:54:09;;;;;;;;;;;;;;;12.97;57.88;102144.44;5017245;28;20597;-56
2023/06/04 00:56:36;;;;;;;;;;;;;;;12.95;57.71;102140.06;5017278;28;20012;-57
2023/06/04 00:59:02;;;;;;;;;;;;;;;12.91;58.97;102143.34;5017084;28;19922;-56
2023/06/04 01:01:30;;;;;;;;;;;;;;;12.88;57.62;102142.41;5016469;28;19925;-56
2023/06/04 01:03:57;;;;;;;;;;;;;;;12.83;58.87;102146.50;5014370;28;19971;-56
2023/06/04 01:06:32;;;;;;;;;;;;;;;12.79;58.97;102149.78;5016385;28;19972;-56
2023/06/04 01:08:58;;;;;;;;;;;;;;;12.75;58.85;102152.19;5022851;28;19913;-57
2023/06/04 01:11:30;;;;;;;;;;;;;;;12.70;60.03;102149.44;5019033;28;20376;-57
2023/06/04 01:13:55;;;;;;;;;;;;;;;12.67;58.71;102153.56;5019904;28;20405;-56
2023/06/04 01:16:21;;;;;;;;;;;;;;;12.63;58.34;102156.88;5015847;28;20067;-57
2023/06/04 01:18:47;;;;;;;;;;;;;;;12.59;58.75;102153.28;5016719;28;20335;-57
2023/06/04 01:21:18;;;;;;;;;;;;;;;12.53;60.98;102153.03;5021946;28;20388;-56
2023/06/04 01:23:58;;;;;;;;;;;;;;;12.48;59.05;102155.41;5020555;28;19939;-57
2023/06/04 01:26:27;;;;;;;;;;;;;;;12.45;60.45;102154.41;5021237;28;19917;-58
2023/06/04 01:28:53;;;;;;;;;;;;;;;12.42;60.25;102159.44;5021388;28;19929;-57
2023/06/04 01:31:22;;;;;;;;;;;;;;;12.36;60.04;102152.31;5020493;28;19921;-57
2023/06/04 01:33:50;;;;;;;;;;;;;;;12.34;58.85;102154.84;5017122;28;20327;-57
2023/06/04 01:36:16;;;;;;;;;;;;;;;12.31;61.16;102143.50;5016887;28;19914;-56
2023/06/04 01:38:41;;;;;;;;;;;;;;;12.27;60.63;102147.69;5011720;28;20008;-57
2023/06/04 01:41:07;;;;;;;;;;;;;;;12.21;61.26;102152.59;5013850;28;19925;-57
2023/06/04 01:43:34;;;;;;;;;;;;;;;12.17;61.21;102148.09;5013771;28;19944;-57
2023/06/04 01:46:00;;;;;;;;;;;;;;;12.13;62.61;102153.94;5020665;28;19980;-56
2023/06/04 01:48:25;;;;;;;;;;;;;;;12.08;63.22;102153.78;5024433;28;19925;-57
2023/06/04 01:50:50;;;;;;;;;;;;;;;12.04;63.28;102151.88;5016545;28;20183;-57
2023/06/04 01:53:15;;;;;;;;;;;;;;;12.00;63.58;102154.25;5020736;28;19922;-57
2023/06/04 01:55:41;;;;;;;;;;;;;;;11.94;61.40;102152.28;5023084;28;19922;-57
2023/06/04 01:58:07;;;;;;;;;;;;;;;11.91;63.80;102159.03;5019792;28;19921;-56
2023/06/04 02:00:32;;;;;;;;;;;;;;;11.86;62.71;102150.19;5019515;28;19925;-56
2023/06/04 02:02:58;;;;;;;;;;;;;;;11.82;63.66;102152.63;5021821;28;19917;-57
2023/06/04 02:05:24;;;;;;;;;;;;;;;11.79;63.54;102143.88;5019128;28;19925;-58
2023/06/04 02:07:49;;;;;;;;;;;;;;;11.74;64.95;102147.94;5011380;28;19922;-57
2023/06/04 02:10:18;;;;;;;;;;;;;;;11.70;65.34;102149.50;5011757;28;19918;-57
2023/06/04 02:12:56;;;;;;;;;;;;;;;11.67;65.17;102151.94;5022162;28;19960;-57
2023/06/04 02:15:22;;;;;;;;;;;;;;;11.63;65.01;102149.16;5016430;28;20458;-56
2023/06/04 02:17:50;;;;;;;;;;;;;;;11.60;64.71;102149.03;5012126;28;19944;-57
2023/06/04 02:20:16;;;;;;;;;;;;;;;11.54;63.73;102144.50;5011240;28;19921;-57
2023/06/04 02:22:41;;;;;;;;;;;;;;;11.52;63.59;102146.09;5012415;28;19929;-57
2023/06/04 02:25:09;;;;;;;;;;;;;;;11.50;65.12;102145.16;5021561;28;19917;-57
2023/06/04 02:27:34;;;;;;;;;;;;;;;11.48;65.17;102151.94;5015441;28;19929;-57
2023/06/04 02:29:59;;;;;;;;;;;;;;;11.47;64.69;102151.06;5015539;28;19925;-57
2023/06/04 02:32:25;;;;;;;;;;;;;;;11.44;64.86;102153.50;5019250;28;19925;-58
2023/06/04 02:34:50;;;;;;;;;;;;;;;11.40;62.69;102146.44;5011194;28;19917;-57
2023/06/04 02:37:15;;;;;;;;;;;;;;;11.37;65.03;102150.59;5011652;28;19996;-57
2023/06/04 02:39:40;;;;;;;;;;;;;;;11.33;63.04;102143.50;5013644;28;19917;-57
2023/06/04 02:42:06;;;;;;;;;;;;;;;11.32;66.63;102149.47;5014141;28;20000;-57
2023/06/04 02:44:32;;;;;;;;;;;;;;;11.28;66.73;102157.09;5012123;28;20132;-46
2023/06/04 02:46:57;;;;;;;;;;;;;;;11.23;67.18;102152.53;5011397;28;19922;-50
2023/06/04 02:49:22;;;;;;;;;;;;;;;11.17;67.53;102157.41;5017308;28;19925;-50
2023/06/04 02:51:48;;;;;;;;;;;;;;;11.11;67.66;102155.41;5019395;28;20314;-48
2023/06/04 02:54:13;;;;;;;;;;;;;;;11.05;66.70;102155.13;5018906;28;20019;-47
2023/06/04 02:56:38;;;;;;;;;;;;;;;11.02;66.66;102157.56;5015844;28;19929;-47
2023/06/04 02:59:04;;;;;;;;;;;;;;;10.97;67.32;102152.19;5019368;28;19914;-47
2023/06/04 03:01:29;;;;;;;;;;;;;;;10.92;67.82;102157.91;5013753;28;19913;-49
2023/06/04 03:03:55;;;;;;;;;;;;;;;10.88;68.09;102154.34;5015918;28;19913;-48
2023/06/04 03:06:21;;;;;;;;;;;;;;;10.84;65.38;102160.13;5012872;28;19913;-49
2023/06/04 03:08:47;;;;;;;;;;;;;;;10.80;68.11;102158.25;5011575;28;19948;-47
2023/06/04 03:11:13;;;;;;;;;;;;;;;10.77;67.42;102154.63;5011460;28;19929;-48
2023/06/04 03:13:38;;;;;;;;;;;;;;;10.74;68.08;102160.53;5015258;28;19929;-45
2023/06/04 03:16:09;;;;;;;;;;;;;;;10.71;68.10;102157.78;5019709;28;19928;-49
2023/06/04 03:18:40;;;;;;;;;;;;;;;10.67;67.83;102163.59;5018037;28;19917;-51
2023/06/04 03:21:05;;;;;;;;;;;;;;;10.65;68.25;102163.53;5018695;28;19932;-49
2023/06/04 03:23:31;;;;;;;;;;;;;;;10.61;68.30;102153.88;5024611;28;19929;-47
2023/06/04 03:25:57;;;;;;;;;;;;;;;10.58;68.21;102156.31;5024086;28;19925;-47
2023/06/04 03:28:22;;;;;;;;;;;;;;;10.54;69.37;102151.84;5023554;28;19968;-46
2023/06/04 03:30:47;;;;;;;;;;;;;;;10.51;69.56;102159.41;5019361;28;19921;-49
2023/06/04 03:33:12;;;;;;;;;;;;;;;10.48;69.52;102148.97;5022228;28;19921;-49
2023/06/04 03:35:39;;;;;;;;;;;;;;;10.43;71.36;102155.56;5020668;28;19925;-46
2023/06/04 03:38:05;;;;;;;;;;;;;;;10.39;70.85;102151.09;5022855;28;19963;-47
2023/06/04 03:40:30;;;;;;;;;;;;;;;10.37;70.64;102156.13;5018738;28;19929;-46
2023/06/04 03:42:55;;;;;;;;;;;;;;;10.35;67.07;102151.75;5024491;28;20336;-46
2023/06/04 03:45:20;;;;;;;;;;;;;;;10.34;68.15;102156.00;5018599;28;19917;-46
2023/06/04 03:47:46;;;;;;;;;;;;;;;10.34;68.07;102157.69;5017463;28;19922;-47
2023/06/04 03:50:11;;;;;;;;;;;;;;;10.34;69.47;102155.13;5018279;28;19922;-45
2023/06/04 03:52:36;;;;;;;;;;;;;;;10.33;68.76;102155.94;5017281;28;19922;-46
2023/06/04 03:55:02;;;;;;;;;;;;;;;10.33;71.28;102156.81;5024051;28;20415;-45
2023/06/04 03:57:28;;;;;;;;;;;;;;;10.32;70.87;102144.78;5017838;28;20137;-46
2023/06/04 03:59:53;;;;;;;;;;;;;;;10.32;69.46;102151.59;5017470;28;20384;-47
2023/06/04 04:02:18;;;;;;;;;;;;;;;10.33;70.92;102153.38;5026323;28;19924;-46
2023/06/04 04:04:44;;;;;;;;;;;;;;;10.35;67.78;102154.31;5024725;28;20039;-50
2023/06/04 04:07:10;;;;;;;;;;;;;;;10.35;70.15;102155.19;5033624;28;19967;-49
2023/06/04 04:09:36;;;;;;;;;;;;;;;10.37;69.73;102158.72;5026429;28;19913;-45
2023/06/04 04:12:01;;;;;;;;;;;;;;;10.41;69.85;102165.78;5024533;28;20308;-50
2023/06/04 04:14:28;;;;;;;;;;;;;;;10.43;68.66;102158.13;5029567;28;21341;-47
2023/06/04 04:16:53;;;;;;;;;;;;;;;10.46;69.81;102164.31;5017910;28;19925;-51
2023/06/04 04:19:18;;;;;;;;;;;;;;;10.50;67.99;102155.09;5020656;28;19964;-45
2023/06/04 04:21:45;;;;;;;;;;;;;;;10.54;66.59;102156.97;5019768;28;19926;-47
2023/06/04 04:24:10;;;;;;;;;;;;;;;10.72;69.40;102163.00;5015455;28;19928;-46
2023/06/04 04:26:35;;;;;;;;;;;;;;;11.37;66.73;102151.47;5019371;28;19917;-47
2023/06/04 04:29:00;;;;;;;;;;;;;;;12.22;66.33;102158.63;5013853;28;19924;-46
2023/06/04 04:31:30;;;;;;;;;;;;;;;12.92;63.63;102156.28;5015992;28;20004;-46
2023/06/04 04:33:55;;;;;;;;;;;;;;;13.58;62.07;102157.09;5015420;28;19957;-48
2023/06/04 04:36:21;;;;;;;;;;;;;;;14.18;59.97;102160.09;5015270;28;20395;-45
2023/06/04 04:38:46;;;;;;;;;;;;;;;14.56;58.86;102147.59;5023771;28;19924;-49
2023/06/04 04:41:12;;;;;;;;;;;;;;;14.93;58.30;102154.81;5013626;28;19960;-48
2023/06/04 04:43:39;;;;;;;;;;;;;;;15.40;57.44;102144.94;5019743;28;19924;-47
2023/06/04 04:46:04;;;;;;;;;;;;;;;15.80;56.47;102153.88;5016303;28;19913;-56
2023/06/04 04:48:30;;;;;;;;;;;;;;;16.06;55.78;102149.38;5017608;28;19928;-57
2023/06/04 04:50:55;;;;;;;;;;;;;;;16.34;55.38;102150.97;5013821;28;20457;-57
2023/06/04 04:53:20;;;;;;;;;;;;;;;16.45;54.94;102156.44;5014835;28;19933;-57
2023/06/04 04:55:45;;;;;;;;;;;;;;;16.57;53.87;102152.41;5013938;28;19917;-57
2023/06/04 04:58:11;;;;;;;;;;;;;;;16.60;54.54;102155.06;5018068;28;19952;-56
2023/06/04 05:00:36;;;;;;;;;;;;;;;16.79;53.09;102156.41;5026637;28;19995;-57
2023/06/04 05:03:01;;;;;;;;;;;;;;;17.01;52.40;102157.78;5022588;28;19913;-57
2023/06/04 05:05:26;;;;;;;;;;;;;;;16.95;54.18;102160.25;5025006;28;19953;-57
2023/06/04 05:07:52;;;;;;;;;;;;;;;16.89;52.07;102162.69;5021429;28;19932;-58
2023/06/04 05:10:17;;;;;;;;;;;;;;;16.87;52.31;102164.41;5022414;28;20007;-57
2023/06/04 05:12:52;;;;;;;;;;;;;;;17.02;53.03;102164.72;5014842;28;19976;-57
2023/06/04 05:15:18;;;;;;;;;;;;;;;17.12;52.13;102171.88;5020538;28;19925;-57
2023/06/04 05:17:43;;;;;;;;;;;;;;;17.12;52.20;102165.81;5022458;28;19929;-57
2023/06/04 05:20:11;;;;;;;;;;;;;;;17.12;52.29;102163.22;5020976;28;19927;-57
2023/06/04 05:22:37;;;;;;;;;;;;;;;16.95;52.20;102160.25;5021097;28;19940;-58
2023/06/04 05:25:02;;;;;;;;;;;;;;;16.73;52.31;102160.56;5019359;28;20400;-58
2023/06/04 05:27:27;;;;;;;;;;;;;;;16.73;52.39;102160.56;5017657;28;19922;-57
2023/06/04 05:29:53;;;;;;;;;;;;;;;16.80;52.21;102168.53;5014020;28;19971;-57
2023/06/04 05:32:18;;;;;;;;;;;;;;;16.92;52.08;102165.34;5013142;28;19917;-57
2023/06/04 05:34:43;;;;;;;;;;;;;;;17.09;52.06;102170.94;5011850;28;20321;-57
2023/06/04 05:37:09;;;;;;;;;;;;;;;17.26;52.06;102166.97;5012617;28;20387;-57
2023/06/04 05:39:35;;;;;;;;;;;;;;;17.55;50.99;102169.31;5018348;28;20338;-57
2023/06/04 05:42:01;;;;;;;;;;;;;;;17.60;51.36;102168.56;5021709;28;20346;-57
2023/06/04 05:44:26;;;;;;;;;;;;;;;17.70;49.58;102165.28;5017115;28;19917;-57
2023/06/04 05:46:51;;;;;;;;;;;;;;;17.86;50.63;102163.00;5017685;28;19970;-57
2023/06/04 05:49:17;;;;;;;;;;;;;;;17.89;50.38;102173.47;5015969;28;19960;-58
2023/06/04 05:51:42;;;;;;;;;;;;;;;17.94;50.50;102167.50;5020991;28;20112;-57
2023/06/04 05:54:07;;;;;;;;;;;;;;;17.95;50.28;102164.03;5016523;28;20026;-57
2023/06/04 05:56:33;;;;;;;;;;;;;;;18.00;49.75;102177.16;5021453;28;20028;-57
2023/06/04 05:58:58;;;;;;;;;;;;;;;18.10;49.38;102171.25;5017454;28;19914;-57
2023/06/04 06:01:23;;;;;;;;;;;;;;;18.08;49.74;102166.88;5024967;28;19963;-56
2023/06/04 06:03:48;;;;;;;;;;;;;;;18.31;49.70;102168.16;5026748;28;20384;-58
2023/06/04 06:06:14;;;;;;;;;;;;;;;18.31;48.78;102172.47;5025947;28;19947;-57
2023/06/04 06:08:39;;;;;;;;;;;;;;;18.47;49.91;102180.59;5018533;28;19925;-57
2023/06/04 06:11:05;;;;;;;;;;;;;;;18.68;48.51;102172.25;5021678;28;19952;-57
2023/06/04 06:13:30;;;;;;;;;;;;;;;18.82;48.85;102171.63;5025499;28;19917;-56
2023/06/04 06:15:57;;;;;;;;;;;;;;;18.63;48.05;102171.28;5022240;28;19913;-57
2023/06/04 06:18:22;;;;;;;;;;;;;;;18.77;47.93;102170.66;5020816;28;19983;-58
2023/06/04 06:20:47;;;;;;;;;;;;;;;18.85;48.35;102179.47;5017213;28;19925;-57
2023/06/04 06:23:14;;;;;;;;;;;;;;;18.91;46.91;102180.41;5022551;28;19925;-58
2023/06/04 06:25:40;;;;;;;;;;;;;;;18.87;46.74;102173.44;5017804;28;19925;-57
2023/06/04 06:28:05;;;;;;;;;;;;;;;18.91;46.38;102183.03;5019541;28;20611;-57
2023/06/04 06:30:31;;;;;;;;;;;;;;;18.79;47.18;102176.75;5015784;28;20415;-57
2023/06/04 06:32:56;;;;;;;;;;;;;;;18.70;47.03;102178.38;5016332;28;19917;-57
2023/06/04 06:35:21;;;;;;;;;;;;;;;18.81;47.29;102182.84;5016648;28;19968;-57
2023/06/04 06:37:46;;;;;;;;;;;;;;;18.92;47.18;102179.56;5012876;28;20367;-57
2023/06/04 06:40:12;;;;;;;;;;;;;;;19.14;45.78;102182.50;5016499;28;19918;-57
2023/06/04 06:42:37;;;;;;;;;;;;;;;19.35;46.78;102187.09;5025006;28;19963;-57
2023/06/04 06:45:02;;;;;;;;;;;;;;;19.42;45.61;102186.34;5024272;28;19984;-57
2023/06/04 06:47:28;;;;;;;;;;;;;;;19.43;45.29;102183.75;5011958;28;19975;-57
2023/06/04 06:49:54;;;;;;;;;;;;;;;19.55;45.38;102188.25;5016181;28;20327;-57
2023/06/04 06:52:20;;;;;;;;;;;;;;;19.43;44.29;102188.97;5016911;28;19976;-57
2023/06/04 06:54:45;;;;;;;;;;;;;;;19.39;44.91;102187.16;5018563;28;19921;-56
2023/06/04 06:57:11;;;;;;;;;;;;;;;19.51;45.90;102189.06;5019195;28;20897;-57
2023/06/04 06:59:37;;;;;;;;;;;;;;;19.68;44.62;102194.50;5014488;28;19921;-57
2023/06/04 07:02:02;;;;;;;;;;;;;;;19.96;44.59;102198.28;5012516;28;19968;-57
2023/06/04 07:04:27;;;;;;;;;;;;;;;19.90;45.34;102200.81;5011231;28;20300;-56
2023/06/04 07:06:52;;;;;;;;;;;;;;;20.01;45.03;102197.47;5016653;28;19937;-56
2023/06/04 07:09:18;;;;;;;;;;;;;;;20.15;45.06;102192.41;5022145;28;19963;-57
2023/06/04 07:11:43;;;;;;;;;;;;;;;20.29;44.41;102200.38;5015485;28;19922;-56
2023/06/04 07:14:08;;;;;;;;;;;;;;;20.34;43.62;102207.38;5015457;28;20436;-58
2023/06/04 07:16:33;;;;;;;;;;;;;;;20.44;43.45;102202.22;5014965;28;20790;-57
2023/06/04 07:19:01;;;;;;;;;;;;;;;20.38;42.09;102205.66;5010133;28;19917;-57
2023/06/04 07:21:26;;;;;;;;;;;;;;;20.29;41.88;102205.59;5021611;28;19913;-57
2023/06/04 07:23:51;;;;;;;;;;;;;;;20.24;42.87;102210.75;5021988;28;19932;-57
2023/06/04 07:26:17;;;;;;;;;;;;;;;20.18;42.13;102205.47;5018966;28;19925;-58
2023/06/04 07:28:42;;;;;;;;;;;;;;;20.23;42.07;102200.31;5017778;28;20450;-57
2023/06/04 07:31:08;;;;;;;;;;;;;;;20.33;41.67;102205.66;5014552;28;19918;-57
2023/06/04 07:33:33;;;;;;;;;;;;;;;20.37;41.29;102203.91;5015137;28;19921;-57
2023/06/04 07:35:59;;;;;;;;;;;;;;;20.42;41.89;102207.44;5012296;28;19940;-57
2023/06/04 07:38:24;;;;;;;;;;;;;;;20.47;41.96;102200.56;5014047;28;19928;-57
2023/06/04 07:40:50;;;;;;;;;;;;;;;20.49;42.16;102205.78;5012914;28;19924;-57
2023/06/04 07:43:15;;;;;;;;;;;;;;;20.53;40.28;102203.22;5012026;28;19979;-57
2023/06/04 07:45:40;;;;;;;;;;;;;;;20.49;40.44;102209.28;5017560;28;19963;-58
2023/06/04 07:48:05;;;;;;;;;;;;;;;20.48;40.61;102204.06;5013403;28;19921;-57
2023/06/04 07:50:31;;;;;;;;;;;;;;;20.51;40.98;102207.56;5020419;28;19924;-58
2023/06/04 07:52:56;;;;;;;;;;;;;;;20.56;40.57;102207.59;5017023;28;19976;-57
2023/06/04 07:55:21;;;;;;;;;;;;;;;20.61;41.08;102208.50;5017743;28;19947;-58
2023/06/04 07:57:47;;;;;;;;;;;;;;;20.85;40.30;102203.47;5013127;28;20262;-58
2023/06/04 08:00:12;;;;;;;;;;;;;;;21.03;39.22;102210.56;5020533;28;19971;-57
2023/06/04 08:02:37;;;;;;;;;;;;;;;21.20;39.08;102212.41;5015828;28;19975;-57
2023/06/04 08:05:03;;;;;;;;;;;;;;;21.22;39.27;102198.44;5019974;28;19927;-58
2023/06/04 08:07:29;;;;;;;;;;;;;;;21.34;39.04;102203.78;5018654;28;20503;-58
2023/06/04 08:09:56;;;;;;;;;;;;;;;21.30;38.88;102207.28;5021977;28;20819;-57
2023/06/04 08:12:21;;;;;;;;;;;;;;;21.27;38.79;102207.19;5023870;28;19913;-58
2023/06/04 08:14:46;;;;;;;;;;;;;;;21.29;39.07;102212.47;5024595;28;20264;-58
2023/06/04 08:17:12;;;;;;;;;;;;;;;21.45;38.82;102198.59;5019204;28;19926;-57
2023/06/04 08:19:37;;;;;;;;;;;;;;;21.59;37.32;102201.25;5019896;28;19925;-58
2023/06/04 08:22:02;;;;;;;;;;;;;;;21.65;37.94;102198.66;5017292;28;20007;-57
2023/06/04 08:24:27;;;;;;;;;;;;;;;21.82;36.91;102210.06;5026128;28;19921;-56
2023/06/04 08:26:52;;;;;;;;;;;;;;;21.84;36.71;102210.06;5024461;28;19968;-57
2023/06/04 08:29:18;;;;;;;;;;;;;;;21.92;36.00;102206.63;5018485;28;19940;-57
2023/06/04 08:31:43;;;;;;;;;;;;;;;22.08;35.98;102209.25;5021322;28;19951;-59
2023/06/04 08:34:09;;;;;;;;;;;;;;;22.05;36.12;102209.25;5016178;28;19920;-57
2023/06/04 08:36:34;;;;;;;;;;;;;;;22.09;36.21;102211.94;5018966;28;20003;-58
2023/06/04 08:39:01;;;;;;;;;;;;;;;22.12;36.09;102211.94;5015327;28;19924;-58
2023/06/04 08:41:31;;;;;;;;;;;;;;;22.14;36.31;102211.91;5017258;28;19971;-58
2023/06/04 08:43:57;;;;;;;;;;;;;;;22.32;35.80;102214.56;5020913;28;19921;-59
2023/06/04 08:46:23;;;;;;;;;;;;;;;22.29;34.74;102203.22;5013348;28;19972;-58
2023/06/04 08:48:49;;;;;;;;;;;;;;;22.18;35.36;102208.44;5012696;28;20380;-58
2023/06/04 08:51:15;;;;;;;;;;;;;;;22.18;34.39;102209.31;5018247;28;19921;-57
2023/06/04 08:53:41;;;;;;;;;;;;;;;22.31;34.10;102209.31;5022616;28;19962;-58
2023/06/04 08:56:06;;;;;;;;;;;;;;;22.35;34.13;102204.09;5014792;28;20382;-50
2023/06/04 08:58:33;;;;;;;;;;;;;;;22.60;34.03;102209.34;5019490;28;19927;-49
2023/06/04 09:00:59;;;;;;;;;;;;;;;22.59;34.40;102215.47;5017458;28;19914;-47
2023/06/04 09:03:26;;;;;;;;;;;;;;;22.48;33.41;102212.84;5015906;28;19929;-49
2023/06/04 09:05:51;;;;;;;;;;;;;;;22.35;33.95;102216.34;5015963;28;19989;-47
2023/06/04 09:08:17;;;;;;;;;;;;;;;22.44;33.39;102224.19;5015806;28;19925;-48
2023/06/04 09:10:44;;;;;;;;;;;;;;;22.28;32.97;102211.97;5012978;28;20380;-50
2023/06/04 09:13:10;;;;;;;;;;;;;;;21.99;32.71;102217.97;5012588;28;19918;-50
2023/06/04 09:15:35;;;;;;;;;;;;;;;21.95;33.09;102217.09;5014808;28;19983;-48
2023/06/04 09:18:00;;;;;;;;;;;;;;;21.80;33.45;102214.44;5017565;28;19936;-48
2023/06/04 09:20:26;;;;;;;;;;;;;;;21.83;32.58;102222.28;5013059;28;20005;-47
2023/06/04 09:22:52;;;;;;;;;;;;;;;21.81;31.39;102220.56;5014192;28;20376;-48
2023/06/04 09:25:21;;;;;;;;;;;;;;;21.78;30.58;102224.06;5018039;28;19913;-50
2023/06/04 09:27:46;;;;;;;;;;;;;;;21.67;31.87;102217.91;5018213;28;19921;-47
2023/06/04 09:30:12;;;;;;;;;;;;;;;21.64;31.29;102210.88;5012605;28;19913;-49
2023/06/04 09:32:37;;;;;;;;;;;;;;;21.75;31.96;102215.28;5016687;28;20281;-51
2023/06/04 09:35:08;;;;;;;;;;;;;;;21.87;32.04;102208.34;5020767;28;19923;-51
2023/06/04 09:37:34;;;;;;;;;;;;;;;21.92;32.73;102213.59;5015675;28;19924;-50
2023/06/04 09:39:59;;;;;;;;;;;;;;;22.08;30.41;102223.22;5018588;28;19917;-51
2023/06/04 09:42:24;;;;;;;;;;;;;;;21.98;30.57;102212.75;5013317;28;20376;-49
2023/06/04 09:44:50;;;;;;;;;;;;;;;22.03;29.48;102211.88;5013666;28;19926;-51
2023/06/04 09:47:15;;;;;;;;;;;;;;;22.06;30.08;102205.78;5013190;28;19980;-48
2023/06/04 09:49:41;;;;;;;;;;;;;;;22.06;29.50;102214.50;5013476;28;20020;-51
2023/06/04 09:52:07;;;;;;;;;;;;;;;21.99;29.50;102220.59;5014150;28;20401;-51
2023/06/04 09:54:36;;;;;;;;;;;;;;;21.93;30.46;102203.13;5018992;28;20436;-48
2023/06/04 09:57:02;;;;;;;;;;;;;;;21.95;30.07;102209.22;5024655;28;20398;-49
2023/06/04 09:59:28;;;;;;;;;;;;;;;21.99;29.88;102210.13;5021821;28;19917;-48
2023/06/04 10:01:53;;;;;;;;;;;;;;;22.04;29.28;102211.00;5022880;28;19914;-47
2023/06/04 10:04:19;;;;;;;;;;;;;;;22.10;28.69;102210.19;5022235;28;20016;-49
2023/06/04 10:06:44;;;;;;;;;;;;;;;22.09;28.70;102201.47;5020948;28;19969;-47
2023/06/04 10:09:11;;;;;;;;;;;;;;;22.17;28.79;102204.09;5021546;28;19917;-50
2023/06/04 10:11:43;;;;;;;;;;;;;;;22.23;28.96;102203.22;5015093;28;20779;-51
2023/06/04 10:14:21;;;;;;;;;;;;;;;22.24;28.50;102208.44;5022372;28;20020;-50
2023/06/04 10:16:47;;;;;;;;;;;;;;;22.18;28.33;102203.19;5016888;28;19921;-50
2023/06/04 10:19:14;;;;;;;;;;;;;;;22.19;29.07;102202.31;5021188;28;19913;-51
2023/06/04 10:21:39;;;;;;;;;;;;;;;22.26;29.06;102198.84;5017369;28;20339;-50
2023/06/04 10:24:04;;;;;;;;;;;;;;;22.24;28.09;102203.22;5026294;28;20391;-50
2023/06/04 10:26:32;;;;;;;;;;;;;;;22.23;28.62;102205.84;5023923;28;21480;-50
2023/06/04 10:28:58;;;;;;;;;;;;;;;22.23;29.07;102206.72;5014162;28;19918;-47
2023/06/04 10:31:23;;;;;;;;;;;;;;;22.41;29.07;102198.84;5014153;28;19924;-48
2023/06/04 10:33:53;;;;;;;;;;;;;;;22.56;28.72;102204.97;5019462;28;20004;-50
2023/06/04 10:36:22;;;;;;;;;;;;;;;22.55;29.02;102203.22;5016170;28;20009;-50
2023/06/04 10:38:48;;;;;;;;;;;;;;;22.62;28.12;102197.09;5014646;28;19921;-49
2023/06/04 10:41:17;;;;;;;;;;;;;;;22.70;28.49;102192.75;5011661;28;19971;-50
2023/06/04 10:43:46;;;;;;;;;;;;;;;22.70;27.44;102200.59;5016315;28;20321;-47
2023/06/04 10:46:14;;;;;;;;;;;;;;;22.63;27.87;102199.75;5013909;28;19940;-51
2023/06/04 10:48:50;;;;;;;;;;;;;;;22.54;28.56;102210.22;5017307;28;19952;-50
2023/06/04 10:51:15;;;;;;;;;;;;;;;22.73;27.69;102195.34;5019730;28;19983;-50
2023/06/04 10:53:41;;;;;;;;;;;;;;;22.83;27.70;102206.72;5011106;28;19953;-50
2023/06/04 10:56:06;;;;;;;;;;;;;;;22.80;27.63;102207.56;5010678;28;20292;-48
2023/06/04 10:58:32;;;;;;;;;;;;;;;22.84;27.64;102198.81;5013052;28;19963;-49
2023/06/04 11:00:57;;;;;;;;;;;;;;;22.92;27.99;102210.19;5019960;28;20018;-47
2023/06/04 11:03:23;;;;;;;;;;;;;;;22.86;27.49;102210.19;5015621;28;19980;-49
2023/06/04 11:05:48;;;;;;;;;;;;;;;22.99;27.70;102204.09;5015788;28;19917;-47
2023/06/04 11:08:14;;;;;;;;;;;;;;;22.98;27.91;102198.81;5020070;28;19932;-50
2023/06/04 11:10:43;;;;;;;;;;;;;;;22.90;27.59;102204.09;5015421;28;19967;-50
2023/06/04 11:13:08;;;;;;;;;;;;;;;22.91;27.54;102211.09;5012423;28;19913;-46
2023/06/04 11:15:51;;;;;;;;;;;;;;;22.81;28.53;102196.19;5015944;28;19927;-49
2023/06/04 11:18:18;;;;;;;;;;;;;;;22.92;28.56;102193.59;5014318;28;19925;-48
2023/06/04 11:20:44;;;;;;;;;;;;;;;22.97;28.21;102184.84;5013480;28;20291;-51
2023/06/04 11:23:11;;;;;;;;;;;;;;;23.01;27.45;102202.31;5015647;28;19921;-50
2023/06/04 11:25:36;;;;;;;;;;;;;;;23.01;27.65;102193.59;5017747;28;19913;-51
2023/06/04 11:28:01;;;;;;;;;;;;;;;23.12;28.35;102191.81;5013465;28;20016;-48
2023/06/04 11:30:27;;;;;;;;;;;;;;;23.16;28.18;102185.66;5011943;28;19921;-49
2023/06/04 11:33:03;;;;;;;;;;;;;;;23.07;28.49;102184.84;5010309;28;19918;-51
2023/06/04 11:35:29;;;;;;;;;;;;;;;23.07;28.44;102180.44;5017600;28;20384;-49
2023/06/04 11:37:55;;;;;;;;;;;;;;;23.16;28.62;102180.41;5018074;28;19972;-50
2023/06/04 11:40:21;;;;;;;;;;;;;;;23.24;28.14;102181.28;5026002;28;19917;-48
2023/06/04 11:42:47;;;;;;;;;;;;;;;23.27;28.67;102186.50;5017690;28;19913;-51
2023/06/04 11:45:13;;;;;;;;;;;;;;;23.29;28.27;102178.63;5021515;28;20023;-47
2023/06/04 11:47:38;;;;;;;;;;;;;;;23.29;28.15;102176.00;5016751;28;19917;-49
2023/06/04 11:50:03;;;;;;;;;;;;;;;23.31;27.99;102176.00;5020033;28;20362;-51
2023/06/04 11:52:29;;;;;;;;;;;;;;;23.32;28.72;102177.75;5016857;28;19917;-50
2023/06/04 11:54:54;;;;;;;;;;;;;;;23.35;28.57;102169.84;5018686;28;19974;-51
2023/06/04 11:57:19;;;;;;;;;;;;;;;23.42;28.68;102169.84;5015766;28;19963;-49
2023/06/04 11:59:45;;;;;;;;;;;;;;;23.50;28.81;102175.03;5019196;28;19925;-49
2023/06/04 12:02:10;;;;;;;;;;;;;;;23.54;28.63;102167.16;5027805;28;20398;-49
2023/06/04 12:04:35;;;;;;;;;;;;;;;23.54;28.31;102164.53;5022525;28;19917;-47
2023/06/04 12:07:02;;;;;;;;;;;;;;;23.55;28.69;102162.78;5025401;28;19928;-49
2023/06/04 12:09:31;;;;;;;;;;;;;;;23.57;28.75;102165.38;5022569;28;20404;-50
2023/06/04 12:12:00;;;;;;;;;;;;;;;23.65;28.47;102169.72;5022183;28;19920;-49
2023/06/04 12:14:25;;;;;;;;;;;;;;;23.81;28.57;102173.16;5024448;28;19913;-47
2023/06/04 12:16:57;;;;;;;;;;;;;;;23.85;28.25;102172.25;5023006;28;19929;-46
2023/06/04 12:19:23;;;;;;;;;;;;;;;23.78;28.61;102165.28;5019711;28;19975;-46
2023/06/04 12:21:58;;;;;;;;;;;;;;;23.66;28.06;102155.75;5018826;28;19921;-46
2023/06/04 12:24:23;;;;;;;;;;;;;;;23.67;28.17;102165.38;5022046;28;20073;-46
2023/06/04 12:26:49;;;;;;;;;;;;;;;23.91;28.71;102164.34;5014259;28;20402;-49
2023/06/04 12:29:15;;;;;;;;;;;;;;;24.00;29.13;102159.00;5017776;28;19926;-47